createdAt,value
2016-08-23T00:00:11.487Z,1006.3
2016-08-23T00:00:35.588Z,1006.3
2016-08-23T00:00:59.720Z,1006.3
2016-08-23T00:01:23.868Z,1006.3
2016-08-23T00:01:48.001Z,1006.3
2016-08-23T00:02:12.105Z,1006.2
2016-08-23T00:02:36.279Z,1006.3
2016-08-23T00:03:00.441Z,1006.3
2016-08-23T00:03:24.560Z,1006.3
2016-08-23T00:03:48.690Z,1006.3
2016-08-23T00:04:12.849Z,1006.3
2016-08-23T00:04:36.946Z,1006.3
2016-08-23T00:05:01.076Z,1006.3
2016-08-23T00:05:25.253Z,1006.3
2016-08-23T00:05:49.402Z,1006.3
2016-08-23T00:06:13.511Z,1006.3
2016-08-23T00:06:37.632Z,1006.3
2016-08-23T00:07:01.799Z,1006.3
2016-08-23T00:07:25.933Z,1006.3
2016-08-23T00:07:50.043Z,1006.3
2016-08-23T00:08:14.196Z,1006.3
2016-08-23T00:08:38.336Z,1006.3
2016-08-23T00:09:02.454Z,1006.3
2016-08-23T00:09:26.577Z,1006.2
2016-08-23T00:09:50.740Z,1006.3
2016-08-23T00:10:14.860Z,1006.3
2016-08-23T00:10:38.993Z,1006.3
2016-08-23T00:11:03.105Z,1006.3
2016-08-23T00:11:27.208Z,1006.3
2016-08-23T00:11:51.333Z,1006.3
2016-08-23T00:12:15.440Z,1006.3
2016-08-23T00:12:39.547Z,1006.3
2016-08-23T00:13:03.673Z,1006.3
2016-08-23T00:13:27.807Z,1006.2
2016-08-23T00:13:51.924Z,1006.2
2016-08-23T00:14:16.068Z,1006.3
2016-08-23T00:14:40.195Z,1006.3
2016-08-23T00:15:04.348Z,1006.2
2016-08-23T00:15:28.448Z,1006.2
2016-08-23T00:15:52.568Z,1006.2
2016-08-23T00:16:16.709Z,1006.2
2016-08-23T00:16:40.872Z,1006.2
2016-08-23T00:17:04.988Z,1006.1
2016-08-23T00:17:29.124Z,1006.1
2016-08-23T00:17:53.263Z,1006.1
2016-08-23T00:18:17.389Z,1006.1
2016-08-23T00:18:41.499Z,1006.1
2016-08-23T00:19:05.621Z,1006.1
2016-08-23T00:19:29.735Z,1006.1
2016-08-23T00:19:53.867Z,1006.1
2016-08-23T00:20:17.968Z,1006.1
2016-08-23T00:20:42.093Z,1006.1
2016-08-23T00:21:06.204Z,1006.1
2016-08-23T00:21:30.324Z,1006.1
2016-08-23T00:21:54.441Z,1006.1
2016-08-23T00:22:18.579Z,1006.1
2016-08-23T00:22:42.735Z,1006.1
2016-08-23T00:23:06.842Z,1006.1
2016-08-23T00:23:30.958Z,1006.1
2016-08-23T00:23:55.102Z,1006
2016-08-23T00:24:19.238Z,1006
2016-08-23T00:24:43.354Z,1006
2016-08-23T00:25:07.511Z,1006
2016-08-23T00:25:31.650Z,1006
2016-08-23T00:25:55.773Z,1006
2016-08-23T00:26:19.878Z,1006
2016-08-23T00:26:44.015Z,1006
2016-08-23T00:27:08.173Z,1006
2016-08-23T00:27:32.313Z,1006
2016-08-23T00:27:56.451Z,1005.9
2016-08-23T00:28:20.579Z,1005.9
2016-08-23T00:28:44.726Z,1005.9
2016-08-23T00:29:08.872Z,1005.9
2016-08-23T00:29:32.996Z,1005.9
2016-08-23T00:29:57.127Z,1005.9
2016-08-23T00:30:21.267Z,1005.9
2016-08-23T00:30:45.390Z,1005.9
2016-08-23T00:31:09.504Z,1005.9
2016-08-23T00:31:33.649Z,1005.9
2016-08-23T00:31:57.782Z,1005.9
2016-08-23T00:32:21.898Z,1005.9
2016-08-23T00:32:46.031Z,1005.9
2016-08-23T00:33:10.184Z,1005.9
2016-08-23T00:33:34.325Z,1005.9
2016-08-23T00:33:58.434Z,1005.9
2016-08-23T00:34:22.575Z,1005.9
2016-08-23T00:34:46.709Z,1005.9
2016-08-23T00:35:10.830Z,1005.9
2016-08-23T00:35:34.941Z,1006
2016-08-23T00:35:59.080Z,1005.9
2016-08-23T00:36:23.194Z,1005.9
2016-08-23T00:36:47.320Z,1005.9
2016-08-23T00:37:11.486Z,1005.9
2016-08-23T00:37:35.648Z,1005.9
2016-08-23T00:37:59.799Z,1005.9
2016-08-23T00:38:23.940Z,1005.9
2016-08-23T00:38:48.047Z,1005.9
2016-08-23T00:39:12.142Z,1005.9
2016-08-23T00:39:36.274Z,1005.9
2016-08-23T00:40:00.403Z,1005.9
2016-08-23T00:40:24.497Z,1005.9
2016-08-23T00:40:48.631Z,1005.9
2016-08-23T00:41:12.759Z,1005.9
2016-08-23T00:41:36.877Z,1005.9
2016-08-23T00:42:00.989Z,1005.9
2016-08-23T00:42:25.137Z,1005.9
2016-08-23T00:42:49.275Z,1005.8
2016-08-23T00:43:13.362Z,1005.8
2016-08-23T00:43:37.491Z,1005.9
2016-08-23T00:44:01.611Z,1005.8
2016-08-23T00:44:25.736Z,1005.8
2016-08-23T00:44:49.847Z,1005.8
2016-08-23T00:45:13.963Z,1005.9
2016-08-23T00:45:38.082Z,1005.8
2016-08-23T00:46:02.199Z,1005.9
2016-08-23T00:46:26.331Z,1005.8
2016-08-23T00:46:50.476Z,1005.9
2016-08-23T00:47:14.620Z,1005.9
2016-08-23T00:47:38.783Z,1005.9
2016-08-23T00:48:02.911Z,1005.9
2016-08-23T00:48:27.055Z,1005.9
2016-08-23T00:48:51.176Z,1005.9
2016-08-23T00:49:15.284Z,1005.9
2016-08-23T00:49:39.416Z,1005.9
2016-08-23T00:50:03.528Z,1006
2016-08-23T00:50:27.663Z,1006
2016-08-23T00:50:51.775Z,1006
2016-08-23T00:51:15.881Z,1006
2016-08-23T00:51:40.012Z,1006
2016-08-23T00:52:04.166Z,1006
2016-08-23T00:52:28.340Z,1006
2016-08-23T00:52:52.472Z,1006
2016-08-23T00:53:16.580Z,1006
2016-08-23T00:53:40.714Z,1006
2016-08-23T00:54:04.812Z,1006
2016-08-23T00:54:28.951Z,1006
2016-08-23T00:54:53.081Z,1006
2016-08-23T00:55:17.191Z,1006
2016-08-23T00:55:41.292Z,1006
2016-08-23T00:56:05.431Z,1006.1
2016-08-23T00:56:29.547Z,1006.1
2016-08-23T00:56:53.698Z,1006
2016-08-23T00:57:17.823Z,1006.1
2016-08-23T00:57:41.986Z,1006.1
2016-08-23T00:58:06.130Z,1006.1
2016-08-23T00:58:30.272Z,1006.1
2016-08-23T00:58:54.387Z,1006.1
2016-08-23T00:59:18.517Z,1006.1
2016-08-23T00:59:42.656Z,1006.1
2016-08-23T01:00:06.777Z,1006.1
2016-08-23T01:00:30.926Z,1006.1
2016-08-23T01:00:55.041Z,1006.1
2016-08-23T01:01:19.178Z,1006.2
2016-08-23T01:01:43.268Z,1006.1
2016-08-23T01:02:07.407Z,1006.1
2016-08-23T01:02:31.545Z,1006.2
2016-08-23T01:02:55.678Z,1006.1
2016-08-23T01:03:19.815Z,1006.2
2016-08-23T01:03:43.924Z,1006.2
2016-08-23T01:04:08.066Z,1006.2
2016-08-23T01:04:32.198Z,1006.1
2016-08-23T01:04:56.316Z,1006.1
2016-08-23T01:05:20.445Z,1006.1
2016-08-23T01:05:44.565Z,1006.1
2016-08-23T01:06:08.712Z,1006.1
2016-08-23T01:06:32.863Z,1006.2
2016-08-23T01:06:57.007Z,1006.2
2016-08-23T01:07:21.138Z,1006.1
2016-08-23T01:07:45.274Z,1006.1
2016-08-23T01:08:09.392Z,1006.1
2016-08-23T01:08:33.526Z,1006.1
2016-08-23T01:08:57.658Z,1006.1
2016-08-23T01:09:21.768Z,1006.1
2016-08-23T01:09:45.897Z,1006.1
2016-08-23T01:10:10.033Z,1006.1
2016-08-23T01:10:34.204Z,1006.1
2016-08-23T01:10:58.313Z,1006.1
2016-08-23T01:11:22.437Z,1006.1
2016-08-23T01:11:46.560Z,1006.1
2016-08-23T01:12:10.696Z,1006.1
2016-08-23T01:12:34.808Z,1006.1
2016-08-23T01:12:58.932Z,1006.1
2016-08-23T01:13:23.068Z,1006.1
2016-08-23T01:13:47.203Z,1006.1
2016-08-23T01:14:11.317Z,1006.1
2016-08-23T01:14:35.445Z,1006.1
2016-08-23T01:14:59.561Z,1006.1
2016-08-23T01:15:23.703Z,1006.1
2016-08-23T01:15:47.815Z,1006.1
2016-08-23T01:16:11.961Z,1006.1
2016-08-23T01:16:36.090Z,1006.1
2016-08-23T01:17:00.231Z,1006.1
2016-08-23T01:17:24.350Z,1006.1
2016-08-23T01:17:48.486Z,1006.1
2016-08-23T01:18:12.606Z,1006.1
2016-08-23T01:18:36.743Z,1006.1
2016-08-23T01:19:00.882Z,1006.1
2016-08-23T01:19:35.649Z,1006.1
2016-08-23T01:19:59.779Z,1006.1
2016-08-23T01:20:23.902Z,1006.1
2016-08-23T01:20:48.100Z,1006.1
2016-08-23T01:21:12.222Z,1006.1
2016-08-23T01:21:36.362Z,1006.1
2016-08-23T01:22:00.481Z,1006.1
2016-08-23T01:22:24.608Z,1006.1
2016-08-23T01:22:48.738Z,1006.1
2016-08-23T01:23:12.841Z,1006.1
2016-08-23T01:23:37.752Z,1006.1
2016-08-23T01:24:01.887Z,1006.1
2016-08-23T01:24:26.019Z,1006.1
2016-08-23T01:24:50.134Z,1006.1
2016-08-23T01:25:14.269Z,1006.1
2016-08-23T01:25:38.393Z,1006.1
2016-08-23T01:26:02.508Z,1006.1
2016-08-23T01:26:26.633Z,1006.1
2016-08-23T01:26:50.771Z,1006.1
2016-08-23T01:27:14.891Z,1006.1
2016-08-23T01:27:39.019Z,1006.1
2016-08-23T01:28:03.148Z,1006.1
2016-08-23T01:28:27.275Z,1006.1
2016-08-23T01:28:51.407Z,1006.1
2016-08-23T01:29:15.519Z,1006.1
2016-08-23T01:29:39.659Z,1006.1
2016-08-23T01:30:03.803Z,1006.1
2016-08-23T01:30:27.938Z,1006.1
2016-08-23T01:30:52.043Z,1006.1
2016-08-23T01:31:16.162Z,1006.1
2016-08-23T01:31:40.282Z,1006.1
2016-08-23T01:32:04.409Z,1006.1
2016-08-23T01:32:28.533Z,1006.1
2016-08-23T01:32:52.677Z,1006.1
2016-08-23T01:33:16.846Z,1006.1
2016-08-23T01:33:40.963Z,1006.1
2016-08-23T01:34:05.088Z,1006.1
2016-08-23T01:34:29.221Z,1006.1
2016-08-23T01:34:53.379Z,1006.1
2016-08-23T01:35:17.498Z,1006.1
2016-08-23T01:35:41.622Z,1006.1
2016-08-23T01:36:05.752Z,1006.1
2016-08-23T01:36:29.903Z,1006.1
2016-08-23T01:36:54.024Z,1006.1
2016-08-23T01:37:18.143Z,1006.1
2016-08-23T01:37:42.256Z,1006.1
2016-08-23T01:38:06.382Z,1006.1
2016-08-23T01:38:30.487Z,1006.1
2016-08-23T01:38:54.601Z,1006.2
2016-08-23T01:39:18.730Z,1006.1
2016-08-23T01:39:42.857Z,1006.1
2016-08-23T01:40:06.998Z,1006.1
2016-08-23T01:40:31.149Z,1006.1
2016-08-23T01:40:55.281Z,1006.1
2016-08-23T01:41:19.419Z,1006.2
2016-08-23T01:41:43.525Z,1006.2
2016-08-23T01:42:07.675Z,1006.1
2016-08-23T01:42:31.828Z,1006.1
2016-08-23T01:42:55.981Z,1006.1
2016-08-23T01:43:20.124Z,1006.1
2016-08-23T01:43:44.251Z,1006.1
2016-08-23T01:44:08.390Z,1006.2
2016-08-23T01:44:32.532Z,1006.2
2016-08-23T01:44:56.655Z,1006.2
2016-08-23T01:45:20.825Z,1006.2
2016-08-23T01:45:44.932Z,1006.2
2016-08-23T01:46:09.065Z,1006.2
2016-08-23T01:46:33.209Z,1006.2
2016-08-23T01:46:57.366Z,1006.2
2016-08-23T01:47:21.524Z,1006.2
2016-08-23T01:47:45.651Z,1006.2
2016-08-23T01:48:09.782Z,1006.2
2016-08-23T01:48:33.904Z,1006.2
2016-08-23T01:48:58.034Z,1006.2
2016-08-23T01:49:22.144Z,1006.2
2016-08-23T01:49:46.278Z,1006.2
2016-08-23T01:50:10.423Z,1006.2
2016-08-23T01:50:34.554Z,1006.2
2016-08-23T01:50:58.670Z,1006.2
2016-08-23T01:51:22.799Z,1006.2
2016-08-23T01:51:46.964Z,1006.2
2016-08-23T01:52:11.104Z,1006.2
2016-08-23T01:52:35.226Z,1006.2
2016-08-23T01:52:59.364Z,1006.2
2016-08-23T01:53:23.487Z,1006.2
2016-08-23T01:53:47.604Z,1006.2
2016-08-23T01:54:11.768Z,1006.2
2016-08-23T01:54:35.898Z,1006.2
2016-08-23T01:55:00.012Z,1006.2
2016-08-23T01:55:24.149Z,1006.2
2016-08-23T01:55:48.297Z,1006.2
2016-08-23T01:56:12.408Z,1006.2
2016-08-23T01:56:36.539Z,1006.2
2016-08-23T01:57:00.653Z,1006.2
2016-08-23T01:57:24.786Z,1006.2
2016-08-23T01:57:48.949Z,1006.2
2016-08-23T01:58:13.075Z,1006.2
2016-08-23T01:58:37.187Z,1006.2
2016-08-23T01:59:01.297Z,1006.2
2016-08-23T01:59:25.464Z,1006.2
2016-08-23T01:59:49.576Z,1006.1
2016-08-23T02:00:13.714Z,1006.2
2016-08-23T02:00:37.821Z,1006.2
2016-08-23T02:01:01.949Z,1006.2
2016-08-23T02:01:26.088Z,1006.2
2016-08-23T02:01:50.215Z,1006.2
2016-08-23T02:02:14.351Z,1006.2
2016-08-23T02:02:38.509Z,1006.2
2016-08-23T02:03:02.629Z,1006.2
2016-08-23T02:03:26.758Z,1006.2
2016-08-23T02:03:50.881Z,1006.2
2016-08-23T02:04:15.020Z,1006.2
2016-08-23T02:04:39.174Z,1006.2
2016-08-23T02:05:03.316Z,1006.2
2016-08-23T02:05:27.454Z,1006.2
2016-08-23T02:05:51.601Z,1006.2
2016-08-23T02:06:15.724Z,1006.2
2016-08-23T02:06:39.857Z,1006.2
2016-08-23T02:07:03.991Z,1006.2
2016-08-23T02:07:28.096Z,1006.2
2016-08-23T02:07:52.200Z,1006.2
2016-08-23T02:08:16.313Z,1006.2
2016-08-23T02:08:40.428Z,1006.2
2016-08-23T02:09:04.567Z,1006.2
2016-08-23T02:09:28.684Z,1006.2
2016-08-23T02:09:52.801Z,1006.2
2016-08-23T02:10:16.948Z,1006.2
2016-08-23T02:10:41.058Z,1006.2
2016-08-23T02:11:05.183Z,1006.2
2016-08-23T02:11:29.316Z,1006.2
2016-08-23T02:11:53.444Z,1006.2
2016-08-23T02:12:17.549Z,1006.1
2016-08-23T02:12:41.689Z,1006.2
2016-08-23T02:13:05.824Z,1006.2
2016-08-23T02:13:29.967Z,1006.2
2016-08-23T02:13:54.069Z,1006.2
2016-08-23T02:14:18.182Z,1006.2
2016-08-23T02:14:42.328Z,1006.1
2016-08-23T02:15:06.465Z,1006.2
2016-08-23T02:15:30.600Z,1006.2
2016-08-23T02:15:54.749Z,1006.2
2016-08-23T02:16:18.884Z,1006.2
2016-08-23T02:16:43.011Z,1006.2
2016-08-23T02:17:07.130Z,1006.1
2016-08-23T02:17:31.277Z,1006.1
2016-08-23T02:17:55.411Z,1006.1
2016-08-23T02:18:19.532Z,1006.1
2016-08-23T02:18:43.640Z,1006.1
2016-08-23T02:19:07.799Z,1006.2
2016-08-23T02:19:32.661Z,1006.2
2016-08-23T02:19:56.785Z,1006.2
2016-08-23T02:20:20.903Z,1006.2
2016-08-23T02:20:45.041Z,1006.2
2016-08-23T02:21:09.167Z,1006.1
2016-08-23T02:21:33.274Z,1006.1
2016-08-23T02:21:57.398Z,1006.1
2016-08-23T02:22:21.535Z,1006.1
2016-08-23T02:22:45.666Z,1006.1
2016-08-23T02:23:09.778Z,1006.2
2016-08-23T02:23:33.913Z,1006.2
2016-08-23T02:23:58.027Z,1006.2
2016-08-23T02:24:22.141Z,1006.2
2016-08-23T02:24:46.252Z,1006.2
2016-08-23T02:25:10.390Z,1006.2
2016-08-23T02:25:34.499Z,1006.2
2016-08-23T02:25:58.614Z,1006.2
2016-08-23T02:26:22.732Z,1006.2
2016-08-23T02:26:46.843Z,1006.2
2016-08-23T02:27:10.971Z,1006.2
2016-08-23T02:27:35.115Z,1006.2
2016-08-23T02:27:59.233Z,1006.2
2016-08-23T02:28:23.360Z,1006.3
2016-08-23T02:28:47.498Z,1006.2
2016-08-23T02:29:11.617Z,1006.2
2016-08-23T02:29:35.757Z,1006.2
2016-08-23T02:29:59.889Z,1006.2
2016-08-23T02:30:24.023Z,1006.2
2016-08-23T02:30:48.124Z,1006.2
2016-08-23T02:31:12.271Z,1006.2
2016-08-23T02:31:36.411Z,1006.3
2016-08-23T02:32:00.526Z,1006.3
2016-08-23T02:32:24.630Z,1006.3
2016-08-23T02:32:48.771Z,1006.3
2016-08-23T02:33:12.921Z,1006.3
2016-08-23T02:33:37.051Z,1006.3
2016-08-23T02:34:01.178Z,1006.3
2016-08-23T02:34:25.299Z,1006.3
2016-08-23T02:34:49.425Z,1006.3
2016-08-23T02:35:13.578Z,1006.3
2016-08-23T02:35:37.697Z,1006.3
2016-08-23T02:36:01.815Z,1006.3
2016-08-23T02:36:25.972Z,1006.4
2016-08-23T02:36:50.075Z,1006.4
2016-08-23T02:37:14.213Z,1006.3
2016-08-23T02:37:38.347Z,1006.4
2016-08-23T02:38:02.477Z,1006.3
2016-08-23T02:38:26.593Z,1006.4
2016-08-23T02:38:50.714Z,1006.4
2016-08-23T02:39:14.840Z,1006.3
2016-08-23T02:39:40.067Z,1006.4
2016-08-23T02:40:04.164Z,1006.4
2016-08-23T02:40:28.279Z,1006.4
2016-08-23T02:40:52.412Z,1006.4
2016-08-23T02:41:16.525Z,1006.3
2016-08-23T02:41:40.638Z,1006.4
2016-08-23T02:42:04.791Z,1006.4
2016-08-23T02:42:28.917Z,1006.4
2016-08-23T02:42:53.031Z,1006.4
2016-08-23T02:43:17.168Z,1006.4
2016-08-23T02:43:41.293Z,1006.4
2016-08-23T02:44:05.452Z,1006.4
2016-08-23T02:44:29.553Z,1006.4
2016-08-23T02:44:53.687Z,1006.4
2016-08-23T02:45:17.816Z,1006.4
2016-08-23T02:45:42.003Z,1006.4
2016-08-23T02:46:06.119Z,1006.4
2016-08-23T02:46:30.233Z,1006.4
2016-08-23T02:46:54.372Z,1006.5
2016-08-23T02:47:18.501Z,1006.4
2016-08-23T02:47:42.624Z,1006.4
2016-08-23T02:48:06.769Z,1006.5
2016-08-23T02:48:30.903Z,1006.4
2016-08-23T02:48:55.074Z,1006.4
2016-08-23T02:49:19.176Z,1006.4
2016-08-23T02:49:43.300Z,1006.5
2016-08-23T02:50:07.448Z,1006.4
2016-08-23T02:50:31.559Z,1006.5
2016-08-23T02:50:55.670Z,1006.5
2016-08-23T02:51:19.805Z,1006.5
2016-08-23T02:51:43.929Z,1006.5
2016-08-23T02:52:08.046Z,1006.5
2016-08-23T02:52:32.165Z,1006.5
2016-08-23T02:52:56.291Z,1006.5
2016-08-23T02:53:20.750Z,1006.5
2016-08-23T02:53:44.885Z,1006.5
2016-08-23T02:54:09.024Z,1006.5
2016-08-23T02:54:33.182Z,1006.5
2016-08-23T02:54:57.325Z,1006.5
2016-08-23T02:55:21.427Z,1006.5
2016-08-23T02:55:45.584Z,1006.5
2016-08-23T02:56:09.746Z,1006.5
2016-08-23T02:56:33.867Z,1006.5
2016-08-23T02:56:58.044Z,1006.5
2016-08-23T02:57:22.179Z,1006.5
2016-08-23T02:57:46.320Z,1006.5
2016-08-23T02:58:10.436Z,1006.5
2016-08-23T02:58:34.571Z,1006.5
2016-08-23T02:58:58.718Z,1006.5
2016-08-23T02:59:22.847Z,1006.5
2016-08-23T02:59:46.951Z,1006.5
2016-08-23T03:00:11.074Z,1006.5
2016-08-23T03:00:35.201Z,1006.5
2016-08-23T03:00:59.356Z,1006.5
2016-08-23T03:01:23.473Z,1006.5
2016-08-23T03:01:47.613Z,1006.5
2016-08-23T03:02:11.785Z,1006.5
2016-08-23T03:02:35.923Z,1006.5
2016-08-23T03:03:00.060Z,1006.5
2016-08-23T03:03:24.215Z,1006.5
2016-08-23T03:03:48.348Z,1006.5
2016-08-23T03:04:12.455Z,1006.6
2016-08-23T03:04:36.577Z,1006.6
2016-08-23T03:05:00.727Z,1006.6
2016-08-23T03:05:24.896Z,1006.5
2016-08-23T03:05:49.006Z,1006.6
2016-08-23T03:06:13.137Z,1006.5
2016-08-23T03:06:37.276Z,1006.6
2016-08-23T03:07:01.386Z,1006.6
2016-08-23T03:07:25.501Z,1006.6
2016-08-23T03:07:49.636Z,1006.5
2016-08-23T03:08:13.762Z,1006.5
2016-08-23T03:08:37.882Z,1006.6
2016-08-23T03:09:02.025Z,1006.5
2016-08-23T03:09:26.143Z,1006.6
2016-08-23T03:09:50.258Z,1006.6
2016-08-23T03:10:14.363Z,1006.6
2016-08-23T03:10:38.501Z,1006.5
2016-08-23T03:11:02.673Z,1006.6
2016-08-23T03:11:26.788Z,1006.6
2016-08-23T03:11:50.951Z,1006.6
2016-08-23T03:12:15.070Z,1006.6
2016-08-23T03:12:39.218Z,1006.6
2016-08-23T03:13:03.356Z,1006.6
2016-08-23T03:13:27.482Z,1006.6
2016-08-23T03:13:51.579Z,1006.6
2016-08-23T03:14:15.721Z,1006.6
2016-08-23T03:14:39.824Z,1006.6
2016-08-23T03:15:03.968Z,1006.6
2016-08-23T03:15:28.125Z,1006.6
2016-08-23T03:15:52.238Z,1006.6
2016-08-23T03:16:16.364Z,1006.6
2016-08-23T03:16:40.512Z,1006.6
2016-08-23T03:17:04.669Z,1006.6
2016-08-23T03:17:28.795Z,1006.6
2016-08-23T03:17:52.927Z,1006.6
2016-08-23T03:18:17.052Z,1006.6
2016-08-23T03:18:41.164Z,1006.6
2016-08-23T03:19:05.258Z,1006.6
2016-08-23T03:19:29.380Z,1006.6
2016-08-23T03:19:53.513Z,1006.6
2016-08-23T03:20:17.631Z,1006.6
2016-08-23T03:20:41.765Z,1006.5
2016-08-23T03:21:05.919Z,1006.6
2016-08-23T03:21:30.022Z,1006.6
2016-08-23T03:21:54.139Z,1006.6
2016-08-23T03:22:18.268Z,1006.5
2016-08-23T03:22:42.378Z,1006.5
2016-08-23T03:23:06.532Z,1006.5
2016-08-23T03:23:30.662Z,1006.5
2016-08-23T03:23:54.799Z,1006.5
2016-08-23T03:24:18.946Z,1006.5
2016-08-23T03:24:43.076Z,1006.5
2016-08-23T03:25:07.201Z,1006.5
2016-08-23T03:25:31.334Z,1006.5
2016-08-23T03:25:55.474Z,1006.6
2016-08-23T03:26:19.603Z,1006.6
2016-08-23T03:26:43.737Z,1006.6
2016-08-23T03:27:07.906Z,1006.6
2016-08-23T03:27:32.080Z,1006.6
2016-08-23T03:27:56.208Z,1006.5
2016-08-23T03:28:20.345Z,1006.6
2016-08-23T03:28:44.488Z,1006.5
2016-08-23T03:29:08.618Z,1006.6
2016-08-23T03:29:32.746Z,1006.5
2016-08-23T03:29:56.857Z,1006.6
2016-08-23T03:30:20.992Z,1006.5
2016-08-23T03:30:45.111Z,1006.6
2016-08-23T03:31:09.241Z,1006.5
2016-08-23T03:31:33.419Z,1006.6
2016-08-23T03:31:57.525Z,1006.6
2016-08-23T03:32:21.644Z,1006.6
2016-08-23T03:32:45.759Z,1006.6
2016-08-23T03:33:09.907Z,1006.6
2016-08-23T03:33:34.025Z,1006.6
2016-08-23T03:33:58.142Z,1006.6
2016-08-23T03:34:22.295Z,1006.6
2016-08-23T03:34:46.449Z,1006.6
2016-08-23T03:35:10.556Z,1006.6
2016-08-23T03:35:34.682Z,1006.6
2016-08-23T03:35:58.823Z,1006.6
2016-08-23T03:36:22.949Z,1006.6
2016-08-23T03:36:47.067Z,1006.6
2016-08-23T03:37:11.209Z,1006.6
2016-08-23T03:37:35.332Z,1006.6
2016-08-23T03:37:59.439Z,1006.6
2016-08-23T03:38:23.568Z,1006.6
2016-08-23T03:38:47.695Z,1006.6
2016-08-23T03:39:11.880Z,1006.6
2016-08-23T03:39:35.977Z,1006.6
2016-08-23T03:40:00.114Z,1006.6
2016-08-23T03:40:24.235Z,1006.6
2016-08-23T03:40:48.372Z,1006.6
2016-08-23T03:41:12.476Z,1006.6
2016-08-23T03:41:36.606Z,1006.6
2016-08-23T03:42:00.741Z,1006.6
2016-08-23T03:42:24.889Z,1006.6
2016-08-23T03:42:49.007Z,1006.6
2016-08-23T03:43:13.130Z,1006.6
2016-08-23T03:43:37.294Z,1006.6
2016-08-23T03:44:01.405Z,1006.6
2016-08-23T03:44:25.516Z,1006.6
2016-08-23T03:44:49.654Z,1006.6
2016-08-23T03:45:13.799Z,1006.6
2016-08-23T03:45:37.911Z,1006.5
2016-08-23T03:46:02.017Z,1006.6
2016-08-23T03:46:26.160Z,1006.5
2016-08-23T03:46:50.290Z,1006.5
2016-08-23T03:47:14.412Z,1006.5
2016-08-23T03:47:38.543Z,1006.5
2016-08-23T03:48:02.692Z,1006.5
2016-08-23T03:48:26.821Z,1006.5
2016-08-23T03:48:50.953Z,1006.6
2016-08-23T03:49:15.110Z,1006.5
2016-08-23T03:49:39.246Z,1006.5
2016-08-23T03:50:03.375Z,1006.5
2016-08-23T03:50:27.514Z,1006.5
2016-08-23T03:50:51.641Z,1006.5
2016-08-23T03:51:15.762Z,1006.5
2016-08-23T03:51:39.875Z,1006.5
2016-08-23T03:52:04.018Z,1006.5
2016-08-23T03:52:28.148Z,1006.5
2016-08-23T03:52:52.287Z,1006.5
2016-08-23T03:53:16.382Z,1006.5
2016-08-23T03:53:40.562Z,1006.5
2016-08-23T03:54:04.712Z,1006.5
2016-08-23T03:54:28.826Z,1006.5
2016-08-23T03:54:52.948Z,1006.5
2016-08-23T03:55:17.081Z,1006.5
2016-08-23T03:55:41.241Z,1006.5
2016-08-23T03:56:05.356Z,1006.5
2016-08-23T03:56:29.492Z,1006.5
2016-08-23T03:56:53.642Z,1006.5
2016-08-23T03:57:17.770Z,1006.5
2016-08-23T03:57:41.908Z,1006.5
2016-08-23T03:58:06.019Z,1006.5
2016-08-23T03:58:30.149Z,1006.5
2016-08-23T03:58:54.272Z,1006.5
2016-08-23T03:59:18.405Z,1006.5
2016-08-23T03:59:42.543Z,1006.4
2016-08-23T04:00:06.665Z,1006.4
2016-08-23T04:00:30.785Z,1006.4
2016-08-23T04:00:54.900Z,1006.4
2016-08-23T04:01:19.032Z,1006.5
2016-08-23T04:01:43.145Z,1006.4
2016-08-23T04:02:07.280Z,1006.4
2016-08-23T04:02:31.405Z,1006.4
2016-08-23T04:02:55.541Z,1006.4
2016-08-23T04:03:19.674Z,1006.4
2016-08-23T04:03:43.831Z,1006.4
2016-08-23T04:04:07.976Z,1006.4
2016-08-23T04:04:32.087Z,1006.4
2016-08-23T04:04:56.203Z,1006.4
2016-08-23T04:05:20.334Z,1006.4
2016-08-23T04:05:44.468Z,1006.4
2016-08-23T04:06:08.580Z,1006.4
2016-08-23T04:06:32.703Z,1006.4
2016-08-23T04:06:56.851Z,1006.3
2016-08-23T04:07:21.000Z,1006.3
2016-08-23T04:07:45.110Z,1006.3
2016-08-23T04:08:09.234Z,1006.3
2016-08-23T04:08:33.358Z,1006.3
2016-08-23T04:08:57.489Z,1006.3
2016-08-23T04:09:21.616Z,1006.3
2016-08-23T04:09:45.759Z,1006.3
2016-08-23T04:10:09.886Z,1006.3
2016-08-23T04:10:34.024Z,1006.3
2016-08-23T04:10:58.150Z,1006.3
2016-08-23T04:11:22.289Z,1006.3
2016-08-23T04:11:46.432Z,1006.3
2016-08-23T04:12:10.567Z,1006.4
2016-08-23T04:12:34.703Z,1006.4
2016-08-23T04:12:58.833Z,1006.3
2016-08-23T04:13:22.947Z,1006.3
2016-08-23T04:13:47.064Z,1006.3
2016-08-23T04:14:11.197Z,1006.3
2016-08-23T04:14:35.366Z,1006.4
2016-08-23T04:14:59.516Z,1006.4
2016-08-23T04:15:23.693Z,1006.4
2016-08-23T04:15:47.832Z,1006.3
2016-08-23T04:16:11.951Z,1006.4
2016-08-23T04:16:36.069Z,1006.3
2016-08-23T04:17:00.202Z,1006.3
2016-08-23T04:17:24.364Z,1006.4
2016-08-23T04:17:48.505Z,1006.4
2016-08-23T04:18:12.606Z,1006.3
2016-08-23T04:18:36.767Z,1006.4
2016-08-23T04:19:00.887Z,1006.4
2016-08-23T04:19:25.041Z,1006.4
2016-08-23T04:19:49.162Z,1006.3
2016-08-23T04:20:13.282Z,1006.3
2016-08-23T04:20:37.422Z,1006.3
2016-08-23T04:21:01.527Z,1006.4
2016-08-23T04:21:25.661Z,1006.4
2016-08-23T04:21:49.821Z,1006.4
2016-08-23T04:22:13.971Z,1006.4
2016-08-23T04:22:38.095Z,1006.4
2016-08-23T04:23:02.248Z,1006.4
2016-08-23T04:23:26.356Z,1006.4
2016-08-23T04:23:50.465Z,1006.4
2016-08-23T04:24:14.598Z,1006.4
2016-08-23T04:24:38.732Z,1006.4
2016-08-23T04:25:02.847Z,1006.4
2016-08-23T04:25:26.965Z,1006.4
2016-08-23T04:25:51.110Z,1006.4
2016-08-23T04:26:15.257Z,1006.4
2016-08-23T04:26:39.414Z,1006.4
2016-08-23T04:27:03.535Z,1006.4
2016-08-23T04:27:27.652Z,1006.4
2016-08-23T04:27:51.779Z,1006.5
2016-08-23T04:28:15.889Z,1006.5
2016-08-23T04:28:40.032Z,1006.4
2016-08-23T04:29:04.166Z,1006.4
2016-08-23T04:29:28.315Z,1006.4
2016-08-23T04:29:52.445Z,1006.5
2016-08-23T04:30:16.596Z,1006.4
2016-08-23T04:30:40.778Z,1006.4
2016-08-23T04:31:04.900Z,1006.4
2016-08-23T04:31:29.029Z,1006.4
2016-08-23T04:31:53.170Z,1006.4
2016-08-23T04:32:17.300Z,1006.4
2016-08-23T04:32:41.411Z,1006.4
2016-08-23T04:33:05.629Z,1006.4
2016-08-23T04:33:29.786Z,1006.5
2016-08-23T04:33:53.949Z,1006.5
2016-08-23T04:34:18.074Z,1006.5
2016-08-23T04:34:42.223Z,1006.5
2016-08-23T04:35:06.362Z,1006.5
2016-08-23T04:35:30.476Z,1006.5
2016-08-23T04:35:54.614Z,1006.5
2016-08-23T04:36:18.761Z,1006.5
2016-08-23T04:36:42.883Z,1006.4
2016-08-23T04:37:07.006Z,1006.5
2016-08-23T04:37:31.171Z,1006.5
2016-08-23T04:37:55.311Z,1006.5
2016-08-23T04:38:19.446Z,1006.5
2016-08-23T04:38:43.568Z,1006.4
2016-08-23T04:39:07.721Z,1006.4
2016-08-23T04:39:31.845Z,1006.5
2016-08-23T04:39:55.987Z,1006.5
2016-08-23T04:40:20.104Z,1006.5
2016-08-23T04:40:44.263Z,1006.5
2016-08-23T04:41:08.394Z,1006.5
2016-08-23T04:41:32.517Z,1006.5
2016-08-23T04:41:56.643Z,1006.5
2016-08-23T04:42:20.769Z,1006.5
2016-08-23T04:42:44.931Z,1006.5
2016-08-23T04:43:09.056Z,1006.5
2016-08-23T04:43:33.216Z,1006.5
2016-08-23T04:43:57.325Z,1006.5
2016-08-23T04:44:21.462Z,1006.5
2016-08-23T04:44:45.577Z,1006.5
2016-08-23T04:45:09.717Z,1006.5
2016-08-23T04:45:33.859Z,1006.5
2016-08-23T04:45:57.986Z,1006.5
2016-08-23T04:46:22.134Z,1006.5
2016-08-23T04:46:46.258Z,1006.5
2016-08-23T04:47:10.394Z,1006.5
2016-08-23T04:47:34.508Z,1006.5
2016-08-23T04:47:58.673Z,1006.5
2016-08-23T04:48:22.804Z,1006.5
2016-08-23T04:48:46.963Z,1006.5
2016-08-23T04:49:11.073Z,1006.5
2016-08-23T04:49:35.197Z,1006.5
2016-08-23T04:49:59.352Z,1006.5
2016-08-23T04:50:23.490Z,1006.5
2016-08-23T04:50:47.630Z,1006.5
2016-08-23T04:51:11.756Z,1006.5
2016-08-23T04:51:35.881Z,1006.5
2016-08-23T04:51:59.993Z,1006.5
2016-08-23T04:52:24.108Z,1006.5
2016-08-23T04:52:48.243Z,1006.5
2016-08-23T04:53:12.394Z,1006.5
2016-08-23T04:53:36.511Z,1006.5
2016-08-23T04:54:00.660Z,1006.6
2016-08-23T04:54:24.803Z,1006.6
2016-08-23T04:54:48.919Z,1006.6
2016-08-23T04:55:13.082Z,1006.6
2016-08-23T04:55:37.217Z,1006.6
2016-08-23T04:56:01.364Z,1006.6
2016-08-23T04:56:25.478Z,1006.6
2016-08-23T04:56:49.610Z,1006.6
2016-08-23T04:57:13.741Z,1006.6
2016-08-23T04:57:37.893Z,1006.6
2016-08-23T04:58:02.011Z,1006.6
2016-08-23T04:58:26.144Z,1006.6
2016-08-23T04:58:50.292Z,1006.5
2016-08-23T04:59:14.401Z,1006.6
2016-08-23T04:59:38.525Z,1006.6
2016-08-23T05:00:02.679Z,1006.6
2016-08-23T05:00:26.807Z,1006.6
2016-08-23T05:00:50.933Z,1006.6
2016-08-23T05:01:15.090Z,1006.6
2016-08-23T05:01:39.252Z,1006.6
2016-08-23T05:02:03.354Z,1006.6